Aeroporto :
LOGIN :

Iscrizione | Disclaimer

   EN    FR    IT 

 










Sommario :    VFR   VFR Marginale   IFR   IFR Intensivo   IFR Molto Intensivo
Visibilità : 
Base nubi : 
>= 8 km
>= 3000ft
5 / 8 km
1000 / 3000 ft
1500m / 5 km
500 / 1000 ft
800 / 1500m
200 / 500 ft
< 800m
< 200 ft
Simboli :   Temporali  Nebbia  Neve Forte  Precipitazioni Forti  Vento > 20 kt
SIGMETs :   Varie  Temporali  Ghiacco  Turbolenza  Onda orograficha  Ceneri Vulcaniche






- Altitudine del aeroporto : 1202 ft
- Codice IATA : IGS


ETSI - Ingolstadt

ULTIMO METAR :
  • 261720Z 28011KT 8000 VCSH FEW004 FEW018CB BKN036 01/M00 Q1004 RESHSN BLU BLU TEMPO YLO

METARs OBSOLETI :
  • 261704Z 29016KT 0600 R25/2500D +SHSNGS SCT004 BKN018CB 02/M01 Q1003 RED RED BECMG WHT
  • 261656Z 29018G30KT 2000 SHSNGS BKN020CB BKN038 03/M02 Q1003 YLO BLU TEMPO AMB
  • 261625Z 28018KT 9999 -SHGS SCT020TCU BKN040 04/M03 Q1002 BLU BLU TEMPO YLO
  • 261520Z 28020KT 9999 FEW024 BKN038 04/M03 Q1002 BLU BLU TEMPO YLO

TAF COR TAF ETSI
Valido dal 26 a 18 ore il 27 a 03 ore UTC


261714Z 2618/2703 27012KT 9999 NSW SCT015 BKN025
TEMPO 2618/2703 28015KT 2000 SHSN BKN012TCU CANCEL 1800



MetMap, La meteo Aeronautica in un colpo d'occhio ! - Copyright ORBIFLY Dicembre 2007 - Disclaimer

ORBIFLY MET'MAP TEAM :

Programmazione e sviluppo : Alexandra Zaïnal
Concezione : Baudouin d'Aumeries
Aiuto per la programmazione : Marc-Olivier Méhu
Supporto tecnico e logistico : Manuel Goepfert
Aiuto per la traduzione : Arnaldo La Scala

Contatto : metmap@orbifly.com




FONTI E CREDITI :

   NOAA